createdAt,value
2022-10-28T00:04:53.986Z,115.50
2022-10-28T00:09:55.758Z,103.50
2022-10-28T00:14:57.846Z,97.70
2022-10-28T00:19:59.693Z,83.30
2022-10-28T00:25:01.970Z,76.90
2022-10-28T00:30:04.950Z,78.40
2022-10-28T00:35:08.008Z,75.60
2022-10-28T00:40:10.562Z,83.60
2022-10-28T00:45:12.801Z,93.30
2022-10-28T00:50:29.029Z,105.40
2022-10-28T00:55:33.229Z,91.30
2022-10-28T01:00:35.148Z,82.70
2022-10-28T01:05:42.794Z,73.20
2022-10-28T01:11:09.656Z,73.30
2022-10-28T01:16:56.629Z,69.30
2022-10-28T01:22:13.357Z,66.80
2022-10-28T01:27:29.906Z,65.30
2022-10-28T01:32:44.037Z,66.00
2022-10-28T01:38:00.218Z,79.90
2022-10-28T01:43:36.864Z,63.00
2022-10-28T01:48:48.094Z,62.70
2022-10-28T01:53:53.788Z,59.80
2022-10-28T01:58:59.102Z,60.50
2022-10-28T02:04:01.394Z,55.20
2022-10-28T02:09:06.545Z,60.00
2022-10-28T02:14:11.318Z,59.00
2022-10-28T02:19:25.374Z,62.60
2022-10-28T02:25:02.505Z,61.50
2022-10-28T02:30:07.029Z,67.60
2022-10-28T02:35:19.087Z,58.40
2022-10-28T02:40:25.932Z,52.70
2022-10-28T02:45:35.349Z,54.30
2022-10-28T02:50:42.358Z,53.90
2022-10-28T02:55:48.317Z,57.60
2022-10-28T03:00:51.425Z,57.00
2022-10-28T03:05:53.852Z,54.80
2022-10-28T03:10:55.910Z,61.30
2022-10-28T03:15:57.935Z,49.80
2022-10-28T03:20:59.738Z,48.90
2022-10-28T03:26:01.860Z,45.80
2022-10-28T03:31:04.940Z,52.30
2022-10-28T03:36:07.436Z,49.20
2022-10-28T03:41:09.310Z,59.60
2022-10-28T03:46:11.124Z,55.30
2022-10-28T03:51:13.140Z,49.70
2022-10-28T03:56:21.827Z,53.70
2022-10-28T04:01:23.686Z,51.50
2022-10-28T04:06:25.738Z,49.60
2022-10-28T04:11:27.511Z,54.10
2022-10-28T04:16:29.353Z,52.90
2022-10-28T04:21:31.161Z,48.60
2022-10-28T04:26:33.191Z,46.70
2022-10-28T04:31:35.002Z,48.60
2022-10-28T04:36:37.475Z,51.40
2022-10-28T04:41:39.276Z,55.60
2022-10-28T04:46:41.006Z,52.30
2022-10-28T04:51:42.978Z,53.40
2022-10-28T04:56:44.785Z,51.20
2022-10-28T05:01:47.136Z,50.10
2022-10-28T05:06:49.474Z,50.40
2022-10-28T05:11:52.086Z,46.50
2022-10-28T05:16:54.141Z,54.10
2022-10-28T05:21:56.174Z,39.70
2022-10-28T05:26:59.971Z,48.60
2022-10-28T05:32:02.307Z,45.50
2022-10-28T05:37:04.718Z,47.60
2022-10-28T05:42:06.535Z,46.20
2022-10-28T05:47:08.382Z,47.50
2022-10-28T05:52:10.662Z,43.30
2022-10-28T05:57:13.212Z,47.60
2022-10-28T06:02:15.378Z,47.30
2022-10-28T06:07:17.302Z,43.10
2022-10-28T06:12:17.683Z,38.70
2022-10-28T06:17:19.543Z,45.60
2022-10-28T06:22:21.708Z,40.40
2022-10-28T06:27:23.575Z,42.90
2022-10-28T06:32:25.653Z,35.80
2022-10-28T06:37:27.723Z,36.10
2022-10-28T06:42:29.927Z,32.50
2022-10-28T06:47:34.889Z,29.90
2022-10-28T06:52:39.633Z,37.60
2022-10-28T06:57:41.488Z,33.20
2022-10-28T07:02:45.204Z,30.40
2022-10-28T07:07:47.870Z,31.10
2022-10-28T07:12:52.835Z,32.20
2022-10-28T07:17:57.307Z,38.80
2022-10-28T07:23:00.898Z,31.80
2022-10-28T07:28:02.999Z,25.20
2022-10-28T07:33:05.840Z,29.30
2022-10-28T07:38:08.022Z,29.60
2022-10-28T07:43:10.534Z,31.90
2022-10-28T07:48:12.591Z,27.60
2022-10-28T07:58:17.715Z,23.30
2022-10-28T08:03:19.893Z,30.50
2022-10-28T08:08:21.693Z,32.30
2022-10-28T08:13:23.839Z,30.20
2022-10-28T08:18:32.858Z,25.70
2022-10-28T08:23:35.255Z,23.30
2022-10-28T08:28:36.980Z,23.00
2022-10-28T08:33:42.244Z,25.30
2022-10-28T08:38:46.372Z,27.10
2022-10-28T08:43:57.764Z,25.00
2022-10-28T08:49:03.061Z,28.50
2022-10-28T08:54:13.428Z,25.70
2022-10-28T08:59:22.721Z,26.30
2022-10-28T09:04:36.349Z,26.10
2022-10-28T09:09:38.779Z,29.00
2022-10-28T09:14:52.163Z,27.00
2022-10-28T09:20:10.010Z,21.30
2022-10-28T09:25:36.650Z,21.90
2022-10-28T09:31:06.473Z,20.60
2022-10-28T09:36:19.891Z,17.10
2022-10-28T09:41:27.764Z,16.90
2022-10-28T09:46:34.627Z,17.20
2022-10-28T09:51:47.006Z,20.90
2022-10-28T09:56:51.200Z,20.80
2022-10-28T10:01:54.042Z,17.80
2022-10-28T10:07:02.706Z,18.50
2022-10-28T10:12:10.176Z,19.70
2022-10-28T10:17:17.689Z,16.70
2022-10-28T10:22:33.407Z,17.80
2022-10-28T10:27:35.795Z,18.90
2022-10-28T10:32:45.833Z,12.30
2022-10-28T10:37:57.640Z,14.90
2022-10-28T10:43:18.177Z,16.40
2022-10-28T10:48:20.506Z,11.50
2022-10-28T10:53:32.067Z,12.70
2022-10-28T10:59:03.010Z,10.80
2022-10-28T11:04:07.530Z,12.30
2022-10-28T11:09:31.001Z,13.60
2022-10-28T11:14:33.080Z,13.30
2022-10-28T11:19:37.622Z,15.10
2022-10-28T11:24:58.244Z,13.60
2022-10-28T11:30:00.948Z,14.00
2022-10-28T11:35:09.501Z,14.90
2022-10-28T11:40:13.377Z,14.40
2022-10-28T11:45:44.696Z,12.90
2022-10-28T11:51:12.208Z,11.50
2022-10-28T11:56:34.612Z,12.40
2022-10-28T12:02:05.114Z,12.90
2022-10-28T12:07:26.901Z,13.70
2022-10-28T12:12:50.445Z,12.20
2022-10-28T12:18:06.255Z,13.10
2022-10-28T12:23:18.876Z,17.40
2022-10-28T12:28:41.268Z,21.50
2022-10-28T12:33:47.687Z,15.50
2022-10-28T12:38:57.450Z,13.80
2022-10-28T12:44:10.073Z,15.30
2022-10-28T12:49:32.778Z,15.70
2022-10-28T12:54:58.029Z,13.10
2022-10-28T13:00:02.666Z,12.10
2022-10-28T13:05:06.111Z,13.90
2022-10-28T13:10:29.885Z,14.80
2022-10-28T13:15:41.476Z,14.50
2022-10-28T13:20:53.997Z,21.50
2022-10-28T13:26:07.858Z,17.90
2022-10-28T13:31:10.511Z,15.50
2022-10-28T13:36:21.390Z,17.40
2022-10-28T13:41:28.750Z,13.60
2022-10-28T13:47:22.706Z,17.90
2022-10-28T13:52:25.270Z,15.40
2022-10-28T13:57:38.264Z,13.00
2022-10-28T14:02:46.628Z,14.40
2022-10-28T14:08:01.753Z,15.90
2022-10-28T14:13:20.623Z,16.50
2022-10-28T14:23:49.304Z,19.10
2022-10-28T14:28:52.723Z,16.20
2022-10-28T14:33:54.494Z,20.30
2022-10-28T14:39:37.004Z,13.00
2022-10-28T14:44:57.760Z,19.00
2022-10-28T14:50:03.485Z,23.20
2022-10-28T14:55:07.544Z,17.90
2022-10-28T15:00:19.129Z,17.20
2022-10-28T15:05:24.869Z,20.40
2022-10-28T15:10:30.108Z,20.70
2022-10-28T15:15:37.364Z,21.20
2022-10-28T15:20:39.559Z,24.30
2022-10-28T15:25:41.848Z,22.50
2022-10-28T15:30:46.608Z,32.80
2022-10-28T15:35:48.945Z,47.30
2022-10-28T15:40:51.788Z,25.50
2022-10-28T15:45:54.556Z,34.40
2022-10-28T15:51:22.978Z,26.10
2022-10-28T15:56:26.742Z,53.80
2022-10-28T16:01:39.689Z,62.30
2022-10-28T16:06:41.973Z,33.40
2022-10-28T16:11:48.670Z,40.90
2022-10-28T16:17:15.644Z,44.70
2022-10-28T16:22:19.055Z,56.70
2022-10-28T16:27:22.504Z,38.10
2022-10-28T16:32:38.709Z,58.20
2022-10-28T16:37:44.640Z,47.80
2022-10-28T16:42:47.951Z,48.20
2022-10-28T16:47:49.756Z,39.60
2022-10-28T16:52:54.292Z,37.10
2022-10-28T16:57:56.610Z,54.10
2022-10-28T17:02:59.282Z,49.40
2022-10-28T17:08:05.794Z,44.30
2022-10-28T17:13:15.384Z,56.60
2022-10-28T17:18:17.199Z,43.00
2022-10-28T17:23:18.926Z,41.00
2022-10-28T17:28:20.768Z,46.50
2022-10-28T17:33:23.622Z,47.80
2022-10-28T17:38:26.114Z,60.00
2022-10-28T17:43:28.037Z,46.00
2022-10-28T17:48:30.330Z,61.40
2022-10-28T17:59:40.651Z,43.90
2022-10-28T18:04:42.466Z,49.40
2022-10-28T18:09:44.415Z,44.60
2022-10-28T18:14:52.937Z,43.70
2022-10-28T18:20:02.405Z,41.80
2022-10-28T18:25:04.975Z,42.40
2022-10-28T18:30:07.578Z,45.00
2022-10-28T18:35:09.599Z,46.60
2022-10-28T18:40:12.299Z,47.50
2022-10-28T18:45:14.341Z,41.30
2022-10-28T18:50:16.530Z,43.30
2022-10-28T18:55:18.344Z,47.70
2022-10-28T19:00:20.719Z,42.80
2022-10-28T19:05:22.534Z,41.00
2022-10-28T19:10:24.542Z,38.40
2022-10-28T19:15:26.666Z,42.90
2022-10-28T19:20:28.715Z,47.90
2022-10-28T19:25:30.484Z,38.60
2022-10-28T19:30:32.772Z,41.30
2022-10-28T19:35:34.966Z,51.80
2022-10-28T19:40:37.034Z,42.30
2022-10-28T19:45:46.908Z,39.80
2022-10-28T19:50:57.324Z,40.00
2022-10-28T19:56:01.788Z,42.10
2022-10-28T20:01:06.579Z,50.30
2022-10-28T20:06:11.096Z,46.00
2022-10-28T20:11:16.178Z,46.70
2022-10-28T20:16:19.672Z,41.80
2022-10-28T20:21:24.317Z,38.70
2022-10-28T20:26:31.747Z,39.20
2022-10-28T20:36:38.406Z,43.30
2022-10-28T20:41:41.974Z,44.90
2022-10-28T20:46:48.288Z,42.80
2022-10-28T20:51:50.323Z,43.60
2022-10-28T20:57:11.967Z,37.20
2022-10-28T21:02:27.387Z,41.20
2022-10-28T21:07:29.540Z,41.00
2022-10-28T21:12:36.643Z,40.00
2022-10-28T21:17:39.135Z,40.40
2022-10-28T21:22:40.943Z,40.70
2022-10-28T21:27:42.888Z,41.20
2022-10-28T21:32:47.635Z,39.70
2022-10-28T21:38:09.890Z,43.40
2022-10-28T21:43:18.199Z,39.30
2022-10-28T21:48:28.117Z,40.40
2022-10-28T21:53:35.794Z,36.60
2022-10-28T21:58:39.514Z,34.70
2022-10-28T22:03:41.548Z,35.50
2022-10-28T22:08:49.926Z,38.00
2022-10-28T22:14:03.991Z,38.10
2022-10-28T22:19:08.734Z,37.90
2022-10-28T22:24:10.936Z,39.80
2022-10-28T22:29:12.795Z,38.90
2022-10-28T22:34:14.774Z,40.00
2022-10-28T22:39:16.659Z,38.70
2022-10-28T22:44:18.726Z,37.70
2022-10-28T22:49:22.660Z,41.90
2022-10-28T22:54:24.537Z,37.10
2022-10-28T22:59:26.739Z,38.80
2022-10-28T23:04:28.821Z,35.30
2022-10-28T23:09:32.623Z,39.70
2022-10-28T23:14:38.619Z,36.60
2022-10-28T23:19:40.476Z,38.40
2022-10-28T23:24:42.455Z,34.50
2022-10-28T23:29:44.299Z,38.30
2022-10-28T23:34:46.221Z,32.80
2022-10-28T23:39:48.193Z,37.60
2022-10-28T23:45:10.848Z,33.90
2022-10-28T23:50:17.580Z,37.70
2022-10-28T23:55:19.527Z,31.10
